sensor_id;sensor_type;location;lat;lon;timestamp;pressure;altitude;pressure_sealevel;temperature;humidity
3917;BME280;1973;50.518;7.318;2023-02-15T00:01:35;102400.38;;;2.01;100.00
3917;BME280;1973;50.518;7.318;2023-02-15T00:04:03;102403.00;;;2.02;100.00
3917;BME280;1973;50.518;7.318;2023-02-15T00:06:30;102394.69;;;2.04;100.00
3917;BME280;1973;50.518;7.318;2023-02-15T00:08:57;102383.84;;;2.04;100.00
3917;BME280;1973;50.518;7.318;2023-02-15T00:11:23;102380.28;;;2.03;100.00
3917;BME280;1973;50.518;7.318;2023-02-15T00:14:12;102382.13;;;2.03;100.00
3917;BME280;1973;50.518;7.318;2023-02-15T00:16:40;102378.28;;;2.05;100.00
3917;BME280;1973;50.518;7.318;2023-02-15T00:19:08;102366.44;;;2.06;100.00
3917;BME280;1973;50.518;7.318;2023-02-15T00:21:36;102366.94;;;2.11;100.00
3917;BME280;1973;50.518;7.318;2023-02-15T00:24:05;102364.72;;;2.16;100.00
3917;BME280;1973;50.518;7.318;2023-02-15T00:26:32;102356.56;;;2.16;100.00
3917;BME280;1973;50.518;7.318;2023-02-15T00:28:59;102362.75;;;2.18;100.00
3917;BME280;1973;50.518;7.318;2023-02-15T00:31:27;102359.91;;;2.20;100.00
3917;BME280;1973;50.518;7.318;2023-02-15T00:33:54;102362.75;;;2.18;100.00
3917;BME280;1973;50.518;7.318;2023-02-15T00:36:21;102360.28;;;2.15;100.00
3917;BME280;1973;50.518;7.318;2023-02-15T00:38:47;102356.06;;;2.11;100.00
3917;BME280;1973;50.518;7.318;2023-02-15T00:41:14;102362.72;;;2.07;100.00
3917;BME280;1973;50.518;7.318;2023-02-15T00:43:40;102357.69;;;2.03;100.00
3917;BME280;1973;50.518;7.318;2023-02-15T00:46:07;102359.53;;;2.02;100.00
3917;BME280;1973;50.518;7.318;2023-02-15T00:48:33;102358.03;;;1.98;100.00
3917;BME280;1973;50.518;7.318;2023-02-15T00:51:00;102352.63;;;1.98;100.00
3917;BME280;1973;50.518;7.318;2023-02-15T00:53:28;102358.03;;;1.98;100.00
3917;BME280;1973;50.518;7.318;2023-02-15T00:55:54;102357.91;;;2.00;100.00
3917;BME280;1973;50.518;7.318;2023-02-15T00:58:21;102356.69;;;2.04;100.00
3917;BME280;1973;50.518;7.318;2023-02-15T01:00:48;102347.69;;;2.03;100.00
3917;BME280;1973;50.518;7.318;2023-02-15T01:03:16;102358.31;;;2.06;100.00
3917;BME280;1973;50.518;7.318;2023-02-15T01:05:43;102350.16;;;2.06;100.00
3917;BME280;1973;50.518;7.318;2023-02-15T01:08:09;102352.47;;;2.11;100.00
3917;BME280;1973;50.518;7.318;2023-02-15T01:10:36;102347.91;;;2.11;100.00
3917;BME280;1973;50.518;7.318;2023-02-15T01:13:02;102347.69;;;2.14;100.00
3917;BME280;1973;50.518;7.318;2023-02-15T01:15:29;102345.97;;;2.13;100.00
3917;BME280;1973;50.518;7.318;2023-02-15T01:17:56;102344.22;;;2.12;100.00
3917;BME280;1973;50.518;7.318;2023-02-15T01:20:25;102345.19;;;2.11;100.00
3917;BME280;1973;50.518;7.318;2023-02-15T01:22:54;102341.88;;;2.08;100.00
3917;BME280;1973;50.518;7.318;2023-02-15T01:25:23;102348.16;;;2.08;100.00
3917;BME280;1973;50.518;7.318;2023-02-15T01:27:50;102348.31;;;2.07;100.00
3917;BME280;1973;50.518;7.318;2023-02-15T01:30:16;102341.00;;;2.07;100.00
3917;BME280;1973;50.518;7.318;2023-02-15T01:32:43;102337.31;;;2.08;100.00
3917;BME280;1973;50.518;7.318;2023-02-15T01:35:10;102335.47;;;2.09;100.00
3917;BME280;1973;50.518;7.318;2023-02-15T01:37:37;102341.00;;;2.07;100.00
3917;BME280;1973;50.518;7.318;2023-02-15T01:40:06;102335.56;;;2.07;100.00
3917;BME280;1973;50.518;7.318;2023-02-15T01:42:33;102330.38;;;2.04;100.00
3917;BME280;1973;50.518;7.318;2023-02-15T01:45:12;102331.41;;;2.03;100.00
3917;BME280;1973;50.518;7.318;2023-02-15T01:47:49;102332.38;;;2.02;100.00
3917;BME280;1973;50.518;7.318;2023-02-15T01:52:54;102328.91;;;2.00;100.00
3917;BME280;1973;50.518;7.318;2023-02-15T01:55:23;102322.59;;;2.00;100.00
3917;BME280;1973;50.518;7.318;2023-02-15T01:57:51;102321.50;;;2.02;100.00
3917;BME280;1973;50.518;7.318;2023-02-15T02:00:18;102314.09;;;2.04;100.00
3917;BME280;1973;50.518;7.318;2023-02-15T02:02:47;102316.94;;;2.03;100.00
3917;BME280;1973;50.518;7.318;2023-02-15T02:05:15;102313.22;;;2.04;100.00
3917;BME280;1973;50.518;7.318;2023-02-15T02:07:44;102313.13;;;2.05;100.00
3917;BME280;1973;50.518;7.318;2023-02-15T02:10:19;102313.13;;;2.05;100.00
3917;BME280;1973;50.518;7.318;2023-02-15T02:12:47;102311.53;;;2.03;100.00
3917;BME280;1973;50.518;7.318;2023-02-15T02:15:16;102313.47;;;2.01;100.00
3917;BME280;1973;50.518;7.318;2023-02-15T02:23:27;102306.69;;;1.95;100.00
3917;BME280;1973;50.518;7.318;2023-02-15T02:31:58;102304.47;;;2.00;100.00
3917;BME280;1973;50.518;7.318;2023-02-15T02:34:56;102298.06;;;2.01;100.00
3917;BME280;1973;50.518;7.318;2023-02-15T02:37:51;102290.78;;;2.02;100.00
3917;BME280;1973;50.518;7.318;2023-02-15T02:40:41;102299.53;;;2.05;100.00
3917;BME280;1973;50.518;7.318;2023-02-15T02:43:22;102291.13;;;2.08;100.00
3917;BME280;1973;50.518;7.318;2023-02-15T02:45:59;102290.78;;;2.13;100.00
3917;BME280;1973;50.518;7.318;2023-02-15T02:48:29;102288.78;;;2.15;100.00
3917;BME280;1973;50.518;7.318;2023-02-15T02:50:58;102283.22;;;2.16;100.00
3917;BME280;1973;50.518;7.318;2023-02-15T02:53:25;102273.09;;;2.18;100.00
3917;BME280;1973;50.518;7.318;2023-02-15T02:55:56;102282.88;;;2.21;100.00
3917;BME280;1973;50.518;7.318;2023-02-15T03:00:55;102275.94;;;2.28;100.00
3917;BME280;1973;50.518;7.318;2023-02-15T03:03:29;102274.34;;;2.25;100.00
3917;BME280;1973;50.518;7.318;2023-02-15T03:06:00;102268.78;;;2.27;100.00
3917;BME280;1973;50.518;7.318;2023-02-15T03:08:36;102275.78;;;2.29;100.00
3917;BME280;1973;50.518;7.318;2023-02-15T03:11:04;102270.97;;;2.33;100.00
3917;BME280;1973;50.518;7.318;2023-02-15T03:13:32;102259.00;;;2.35;100.00
3917;BME280;1973;50.518;7.318;2023-02-15T03:16:00;102264.19;;;2.38;100.00
3917;BME280;1973;50.518;7.318;2023-02-15T03:18:48;102255.06;;;2.39;100.00
3917;BME280;1973;50.518;7.318;2023-02-15T03:21:21;102252.94;;;2.43;100.00
3917;BME280;1973;50.518;7.318;2023-02-15T03:23:59;102265.28;;;2.47;100.00
3917;BME280;1973;50.518;7.318;2023-02-15T03:26:27;102258.63;;;2.51;100.00
3917;BME280;1973;50.518;7.318;2023-02-15T03:28:56;102259.22;;;2.55;100.00
3917;BME280;1973;50.518;7.318;2023-02-15T03:31:26;102258.34;;;2.54;100.00
3917;BME280;1973;50.518;7.318;2023-02-15T03:34:00;102258.69;;;2.61;100.00
3917;BME280;1973;50.518;7.318;2023-02-15T03:36:36;102256.84;;;2.61;100.00
3917;BME280;1973;50.518;7.318;2023-02-15T03:39:12;102257.22;;;2.57;100.00
3917;BME280;1973;50.518;7.318;2023-02-15T03:41:53;102254.50;;;2.57;100.00
3917;BME280;1973;50.518;7.318;2023-02-15T03:44:30;102254.38;;;2.58;100.00
3917;BME280;1973;50.518;7.318;2023-02-15T03:47:14;102248.34;;;2.55;100.00
3917;BME280;1973;50.518;7.318;2023-02-15T03:49:51;102242.16;;;2.53;100.00
3917;BME280;1973;50.518;7.318;2023-02-15T03:52:20;102252.03;;;2.54;100.00
3917;BME280;1973;50.518;7.318;2023-02-15T03:54:48;102251.06;;;2.55;100.00
3917;BME280;1973;50.518;7.318;2023-02-15T03:57:19;102234.75;;;2.55;100.00
3917;BME280;1973;50.518;7.318;2023-02-15T04:00:24;102236.00;;;2.51;100.00
3917;BME280;1973;50.518;7.318;2023-02-15T04:03:30;102232.53;;;2.49;100.00
3917;BME280;1973;50.518;7.318;2023-02-15T04:05:59;102231.53;;;2.50;100.00
3917;BME280;1973;50.518;7.318;2023-02-15T04:08:28;102225.38;;;2.48;100.00
3917;BME280;1973;50.518;7.318;2023-02-15T04:11:13;102227.09;;;2.49;100.00
3917;BME280;1973;50.518;7.318;2023-02-15T04:13:39;102244.00;;;2.52;100.00
3917;BME280;1973;50.518;7.318;2023-02-15T04:16:06;102241.44;;;2.51;100.00
3917;BME280;1973;50.518;7.318;2023-02-15T04:18:36;102242.91;;;2.55;100.00
3917;BME280;1973;50.518;7.318;2023-02-15T04:21:23;102234.59;;;2.56;100.00
3917;BME280;1973;50.518;7.318;2023-02-15T04:24:09;102231.78;;;2.58;100.00
3917;BME280;1973;50.518;7.318;2023-02-15T04:26:54;102236.34;;;2.57;100.00
3917;BME280;1973;50.518;7.318;2023-02-15T04:29:23;102231.78;;;2.58;100.00
3917;BME280;1973;50.518;7.318;2023-02-15T04:31:50;102240.03;;;2.56;100.00
3917;BME280;1973;50.518;7.318;2023-02-15T04:34:17;102239.94;;;2.58;100.00
3917;BME280;1973;50.518;7.318;2023-02-15T04:36:44;102244.38;;;2.59;100.00
3917;BME280;1973;50.518;7.318;2023-02-15T04:39:14;102230.91;;;2.57;100.00
3917;BME280;1973;50.518;7.318;2023-02-15T04:41:41;102240.66;;;2.60;100.00
3917;BME280;1973;50.518;7.318;2023-02-15T04:44:08;102247.81;;;2.61;100.00
3917;BME280;1973;50.518;7.318;2023-02-15T04:46:34;102239.56;;;2.62;100.00
3917;BME280;1973;50.518;7.318;2023-02-15T04:49:01;102243.97;;;2.63;100.00
3917;BME280;1973;50.518;7.318;2023-02-15T04:51:28;102240.38;;;2.63;100.00
3917;BME280;1973;50.518;7.318;2023-02-15T04:53:54;102232.13;;;2.64;100.00
3917;BME280;1973;50.518;7.318;2023-02-15T04:56:21;102229.50;;;2.63;100.00
3917;BME280;1973;50.518;7.318;2023-02-15T04:58:48;102227.94;;;2.60;100.00
3917;BME280;1973;50.518;7.318;2023-02-15T05:01:14;102224.59;;;2.57;100.00
3917;BME280;1973;50.518;7.318;2023-02-15T05:03:41;102230.78;;;2.59;100.00
3917;BME280;1973;50.518;7.318;2023-02-15T05:06:07;102237.22;;;2.58;100.00
3917;BME280;1973;50.518;7.318;2023-02-15T05:08:34;102233.75;;;2.56;100.00
3917;BME280;1973;50.518;7.318;2023-02-15T05:11:00;102238.19;;;2.57;100.00
3917;BME280;1973;50.518;7.318;2023-02-15T05:13:27;102245.47;;;2.56;100.00
3917;BME280;1973;50.518;7.318;2023-02-15T05:15:53;102238.19;;;2.57;100.00
3917;BME280;1973;50.518;7.318;2023-02-15T05:18:21;102246.34;;;2.57;100.00
3917;BME280;1973;50.518;7.318;2023-02-15T05:20:48;102252.38;;;2.60;100.00
3917;BME280;1973;50.518;7.318;2023-02-15T05:23:15;102242.28;;;2.62;100.00
3917;BME280;1973;50.518;7.318;2023-02-15T05:25:49;102239.66;;;2.61;100.00
3917;BME280;1973;50.518;7.318;2023-02-15T05:28:35;102231.78;;;2.58;100.00
3917;BME280;1973;50.518;7.318;2023-02-15T05:31:16;102228.91;;;2.59;100.00
3917;BME280;1973;50.518;7.318;2023-02-15T05:33:44;102227.31;;;2.57;100.00
3917;BME280;1973;50.518;7.318;2023-02-15T05:36:11;102224.88;;;2.54;100.00
3917;BME280;1973;50.518;7.318;2023-02-15T05:38:37;102223.13;;;2.53;100.00
3917;BME280;1973;50.518;7.318;2023-02-15T05:41:05;102223.13;;;2.53;100.00
3917;BME280;1973;50.518;7.318;2023-02-15T05:43:32;102223.13;;;2.53;100.00
3917;BME280;1973;50.518;7.318;2023-02-15T05:45:59;102224.09;;;2.52;100.00
3917;BME280;1973;50.518;7.318;2023-02-15T05:48:27;102217.97;;;2.50;100.00
3917;BME280;1973;50.518;7.318;2023-02-15T05:51:02;102225.13;;;2.51;100.00
3917;BME280;1973;50.518;7.318;2023-02-15T05:53:32;102224.38;;;2.49;100.00
3917;BME280;1973;50.518;7.318;2023-02-15T05:56:00;102233.53;;;2.48;100.00
3917;BME280;1973;50.518;7.318;2023-02-15T05:58:31;102225.38;;;2.48;100.00
3917;BME280;1973;50.518;7.318;2023-02-15T06:00:58;102233.66;;;2.46;100.00
3917;BME280;1973;50.518;7.318;2023-02-15T06:03:25;102222.19;;;2.42;100.00
3917;BME280;1973;50.518;7.318;2023-02-15T06:05:54;102228.84;;;2.38;100.00
3917;BME280;1973;50.518;7.318;2023-02-15T06:08:20;102218.84;;;2.39;100.00
3917;BME280;1973;50.518;7.318;2023-02-15T06:10:47;102228.13;;;2.36;100.00
3917;BME280;1973;50.518;7.318;2023-02-15T06:13:14;102231.56;;;2.38;100.00
3917;BME280;1973;50.518;7.318;2023-02-15T06:15:40;102239.00;;;2.36;100.00
3917;BME280;1973;50.518;7.318;2023-02-15T06:18:06;102232.44;;;2.39;100.00
3917;BME280;1973;50.518;7.318;2023-02-15T06:20:33;102232.28;;;2.40;100.00
3917;BME280;1973;50.518;7.318;2023-02-15T06:22:59;102233.31;;;2.39;100.00
3917;BME280;1973;50.518;7.318;2023-02-15T06:25:26;102237.88;;;2.39;100.00
3917;BME280;1973;50.518;7.318;2023-02-15T06:27:52;102237.72;;;2.40;100.00
3917;BME280;1973;50.518;7.318;2023-02-15T06:30:19;102234.78;;;2.43;100.00
3917;BME280;1973;50.518;7.318;2023-02-15T06:32:46;102238.50;;;2.42;100.00
3917;BME280;1973;50.518;7.318;2023-02-15T06:35:12;102235.00;;;2.40;100.00
3917;BME280;1973;50.518;7.318;2023-02-15T06:37:39;102235.88;;;2.41;100.00
3917;BME280;1973;50.518;7.318;2023-02-15T06:40:06;102233.31;;;2.39;100.00
3917;BME280;1973;50.518;7.318;2023-02-15T06:42:32;102235.78;;;2.31;100.00
3917;BME280;1973;50.518;7.318;2023-02-15T06:44:59;102237.03;;;2.27;100.00
3917;BME280;1973;50.518;7.318;2023-02-15T06:47:26;102242.47;;;2.27;100.00
3917;BME280;1973;50.518;7.318;2023-02-15T06:49:52;102235.28;;;2.26;100.00
3917;BME280;1973;50.518;7.318;2023-02-15T06:52:19;102244.94;;;2.30;100.00
3917;BME280;1973;50.518;7.318;2023-02-15T06:54:45;102246.16;;;2.26;100.00
3917;BME280;1973;50.518;7.318;2023-02-15T06:57:12;102238.88;;;2.27;100.00
3917;BME280;1973;50.518;7.318;2023-02-15T06:59:38;102245.31;;;2.26;100.00
3917;BME280;1973;50.518;7.318;2023-02-15T07:02:05;102254.31;;;2.26;100.00
3917;BME280;1973;50.518;7.318;2023-02-15T07:04:31;102249.13;;;2.23;100.00
3917;BME280;1973;50.518;7.318;2023-02-15T07:06:58;102243.72;;;2.23;100.00
3917;BME280;1973;50.518;7.318;2023-02-15T07:09:25;102232.59;;;2.26;100.00
3917;BME280;1973;50.518;7.318;2023-02-15T07:11:51;102236.06;;;2.28;100.00
3917;BME280;1973;50.518;7.318;2023-02-15T07:14:36;102234.94;;;2.31;100.00
3917;BME280;1973;50.518;7.318;2023-02-15T07:17:02;102233.56;;;2.36;100.00
3917;BME280;1973;50.518;7.318;2023-02-15T07:19:29;102229.72;;;2.39;100.00
3917;BME280;1973;50.518;7.318;2023-02-15T07:21:55;102243.31;;;2.39;100.00
3917;BME280;1973;50.518;7.318;2023-02-15T07:24:22;102238.59;;;2.41;100.00
3917;BME280;1973;50.518;7.318;2023-02-15T07:26:48;102238.50;;;2.42;100.00
3917;BME280;1973;50.518;7.318;2023-02-15T07:29:15;102236.03;;;2.39;100.00
3917;BME280;1973;50.518;7.318;2023-02-15T07:31:42;102229.84;;;2.37;100.00
3917;BME280;1973;50.518;7.318;2023-02-15T07:34:11;102229.84;;;2.37;100.00
3917;BME280;1973;50.518;7.318;2023-02-15T07:36:38;102224.41;;;2.37;100.00
3917;BME280;1973;50.518;7.318;2023-02-15T07:39:04;102226.16;;;2.38;100.00
3917;BME280;1973;50.518;7.318;2023-02-15T07:41:30;102223.06;;;2.43;100.00
3917;BME280;1973;50.518;7.318;2023-02-15T07:43:57;102221.91;;;2.45;100.00
3917;BME280;1973;50.518;7.318;2023-02-15T07:46:23;102219.19;;;2.45;100.00
3917;BME280;1973;50.518;7.318;2023-02-15T07:48:50;102214.25;;;2.51;100.00
3917;BME280;1973;50.518;7.318;2023-02-15T07:51:16;102211.38;;;2.52;100.00
3917;BME280;1973;50.518;7.318;2023-02-15T07:53:43;102203.00;;;2.44;100.00
3917;BME280;1973;50.518;7.318;2023-02-15T07:56:12;102198.66;;;2.53;100.00
3917;BME280;1973;50.518;7.318;2023-02-15T07:58:39;102206.09;;;2.51;100.00
3917;BME280;1973;50.518;7.318;2023-02-15T08:01:19;102198.81;;;2.51;100.00
3917;BME280;1973;50.518;7.318;2023-02-15T08:03:45;102192.50;;;2.51;100.00
3917;BME280;1973;50.518;7.318;2023-02-15T08:06:12;102196.69;;;2.55;100.00
3917;BME280;1973;50.518;7.318;2023-02-15T08:08:40;102198.03;;;2.60;100.00
3917;BME280;1973;50.518;7.318;2023-02-15T08:11:14;102186.28;;;2.60;100.00
3917;BME280;1973;50.518;7.318;2023-02-15T08:14:10;102189.00;;;2.60;100.00
3917;BME280;1973;50.518;7.318;2023-02-15T08:16:45;102183.56;;;2.60;100.00
3917;BME280;1973;50.518;7.318;2023-02-15T08:19:18;102182.09;;;2.56;100.00
3917;BME280;1973;50.518;7.318;2023-02-15T08:21:48;102181.13;;;2.57;100.00
3917;BME280;1973;50.518;7.318;2023-02-15T08:24:16;102176.16;;;2.62;100.00
3917;BME280;1973;50.518;7.318;2023-02-15T08:26:44;102178.63;;;2.65;100.00
3917;BME280;1973;50.518;7.318;2023-02-15T08:29:15;102181.06;;;2.68;100.00
3917;BME280;1973;50.518;7.318;2023-02-15T08:31:43;102177.09;;;2.72;100.00
3917;BME280;1973;50.518;7.318;2023-02-15T08:34:11;102182.53;;;2.72;100.00
3917;BME280;1973;50.518;7.318;2023-02-15T08:36:39;102172.91;;;2.68;100.00
3917;BME280;1973;50.518;7.318;2023-02-15T08:39:06;102170.41;;;2.76;100.00
3917;BME280;1973;50.518;7.318;2023-02-15T08:41:37;102174.09;;;2.75;100.00
3917;BME280;1973;50.518;7.318;2023-02-15T08:44:06;102172.97;;;2.77;100.00
3917;BME280;1973;50.518;7.318;2023-02-15T08:46:36;102172.31;;;2.85;100.00
3917;BME280;1973;50.518;7.318;2023-02-15T08:49:03;102173.94;;;2.87;100.00
3917;BME280;1973;50.518;7.318;2023-02-15T08:51:32;102183.56;;;2.91;100.00
3917;BME280;1973;50.518;7.318;2023-02-15T08:54:02;102168.53;;;2.97;100.00
3917;BME280;1973;50.518;7.318;2023-02-15T08:56:33;102168.44;;;2.99;100.00
3917;BME280;1973;50.518;7.318;2023-02-15T08:59:01;102169.53;;;2.96;100.00
3917;BME280;1973;50.518;7.318;2023-02-15T09:01:29;102166.03;;;3.05;100.00
3917;BME280;1973;50.518;7.318;2023-02-15T09:03:59;102157.59;;;3.08;100.00
3917;BME280;1973;50.518;7.318;2023-02-15T09:06:26;102169.22;;;3.10;100.00
3917;BME280;1973;50.518;7.318;2023-02-15T09:08:53;102156.59;;;3.09;100.00
3917;BME280;1973;50.518;7.318;2023-02-15T09:11:22;102154.09;;;3.17;100.00
3917;BME280;1973;50.518;7.318;2023-02-15T09:13:55;102152.56;;;3.24;100.00
3917;BME280;1973;50.518;7.318;2023-02-15T09:16:23;102148.56;;;3.28;100.00
3917;BME280;1973;50.518;7.318;2023-02-15T09:18:50;102146.75;;;3.38;100.00
3917;BME280;1973;50.518;7.318;2023-02-15T09:21:19;102139.38;;;3.29;100.00
3917;BME280;1973;50.518;7.318;2023-02-15T09:23:49;102134.44;;;3.44;100.00
3917;BME280;1973;50.518;7.318;2023-02-15T09:26:20;102148.09;;;3.54;100.00
3917;BME280;1973;50.518;7.318;2023-02-15T09:28:47;102142.19;;;3.49;100.00
3917;BME280;1973;50.518;7.318;2023-02-15T09:31:17;102147.44;;;3.61;100.00
3917;BME280;1973;50.518;7.318;2023-02-15T09:33:45;102152.00;;;3.61;100.00
3917;BME280;1973;50.518;7.318;2023-02-15T09:36:21;102156.31;;;3.63;100.00
3917;BME280;1973;50.518;7.318;2023-02-15T09:38:59;102150.44;;;3.68;100.00
3917;BME280;1973;50.518;7.318;2023-02-15T09:58:53;102161.06;;;4.20;100.00
3917;BME280;1973;50.518;7.318;2023-02-15T10:09:51;102152.19;;;4.37;100.00
3917;BME280;1973;50.518;7.318;2023-02-15T10:12:42;102161.81;;;4.51;100.00
3917;BME280;1973;50.518;7.318;2023-02-15T10:18:39;102149.13;;;5.08;100.00
3917;BME280;1973;50.518;7.318;2023-02-15T10:23:57;102135.53;;;5.45;100.00
3917;BME280;1973;50.518;7.318;2023-02-15T10:26:45;102127.81;;;5.67;100.00
3917;BME280;1973;50.518;7.318;2023-02-15T10:29:33;102127.38;;;5.99;100.00
3917;BME280;1973;50.518;7.318;2023-02-15T10:34:51;102118.78;;;6.39;100.00
3917;BME280;1973;50.518;7.318;2023-02-15T10:40:01;102116.69;;;6.76;100.00
3917;BME280;1973;50.518;7.318;2023-02-15T10:45:39;102110.06;;;6.79;100.00
3917;BME280;1973;50.518;7.318;2023-02-15T10:48:23;102112.00;;;6.87;100.00
3917;BME280;1973;50.518;7.318;2023-02-15T10:51:00;102114.56;;;7.06;100.00
3917;BME280;1973;50.518;7.318;2023-02-15T10:53:44;102110.09;;;7.30;100.00
3917;BME280;1973;50.518;7.318;2023-02-15T10:59:49;102094.53;;;7.65;100.00
3917;BME280;1973;50.518;7.318;2023-02-15T11:05:15;102090.50;;;7.93;100.00
3917;BME280;1973;50.518;7.318;2023-02-15T11:07:47;102081.63;;;8.07;100.00
3917;BME280;1973;50.518;7.318;2023-02-15T11:10:42;102081.69;;;8.23;100.00
3917;BME280;1973;50.518;7.318;2023-02-15T11:13:15;102077.09;;;8.56;100.00
3917;BME280;1973;50.518;7.318;2023-02-15T11:15:55;102078.13;;;8.63;100.00
3917;BME280;1973;50.518;7.318;2023-02-15T11:18:38;102064.56;;;8.86;100.00
3917;BME280;1973;50.518;7.318;2023-02-15T11:21:19;102069.72;;;8.97;100.00
3917;BME280;1973;50.518;7.318;2023-02-15T11:23:47;102070.03;;;9.02;100.00
3917;BME280;1973;50.518;7.318;2023-02-15T11:26:36;102060.53;;;9.21;100.00
3917;BME280;1973;50.518;7.318;2023-02-15T11:29:12;102049.69;;;9.27;100.00
3917;BME280;1973;50.518;7.318;2023-02-15T11:31:49;102048.50;;;9.38;100.00
3917;BME280;1973;50.518;7.318;2023-02-15T11:34:25;102043.25;;;9.12;100.00
3917;BME280;1973;50.518;7.318;2023-02-15T11:36:55;102039.75;;;9.35;100.00
3917;BME280;1973;50.518;7.318;2023-02-15T11:39:26;102035.56;;;9.47;100.00
3917;BME280;1973;50.518;7.318;2023-02-15T11:42:02;102026.13;;;9.80;100.00
3917;BME280;1973;50.518;7.318;2023-02-15T11:44:34;102013.22;;;10.11;100.00
3917;BME280;1973;50.518;7.318;2023-02-15T11:47:02;102013.09;;;10.27;100.00
3917;BME280;1973;50.518;7.318;2023-02-15T11:49:33;102011.44;;;10.64;100.00
3917;BME280;1973;50.518;7.318;2023-02-15T11:52:10;102010.81;;;10.91;96.50
3917;BME280;1973;50.518;7.318;2023-02-15T11:54:43;101998.94;;;11.05;99.64
3917;BME280;1973;50.518;7.318;2023-02-15T11:57:19;101996.00;;;11.07;94.04
3917;BME280;1973;50.518;7.318;2023-02-15T12:00:13;101993.41;;;11.35;87.51
3917;BME280;1973;50.518;7.318;2023-02-15T12:02:45;101988.75;;;11.50;89.77
3917;BME280;1973;50.518;7.318;2023-02-15T12:05:17;101975.31;;;11.76;85.62
3917;BME280;1973;50.518;7.318;2023-02-15T12:07:49;101977.56;;;11.87;84.37
3917;BME280;1973;50.518;7.318;2023-02-15T12:10:30;101971.94;;;11.95;77.64
3917;BME280;1973;50.518;7.318;2023-02-15T12:13:12;101973.13;;;12.07;73.01
3917;BME280;1973;50.518;7.318;2023-02-15T12:15:42;101965.03;;;12.06;76.61
3917;BME280;1973;50.518;7.318;2023-02-15T12:18:38;101966.81;;;11.92;67.95
3917;BME280;1973;50.518;7.318;2023-02-15T12:21:11;101953.47;;;11.96;73.07
3917;BME280;1973;50.518;7.318;2023-02-15T12:23:46;101953.94;;;11.99;71.61
3917;BME280;1973;50.518;7.318;2023-02-15T12:26:15;101944.97;;;12.40;75.12
3917;BME280;1973;50.518;7.318;2023-02-15T12:28:49;101944.28;;;12.59;71.11
3917;BME280;1973;50.518;7.318;2023-02-15T12:33:52;101924.97;;;12.93;67.39
3917;BME280;1973;50.518;7.318;2023-02-15T12:37:09;101933.63;;;13.11;68.76
3917;BME280;1973;50.518;7.318;2023-02-15T12:41:45;101928.69;;;12.79;61.27
3917;BME280;1973;50.518;7.318;2023-02-15T12:44:18;101914.75;;;12.94;63.26
3917;BME280;1973;50.518;7.318;2023-02-15T12:47:25;101915.13;;;12.84;60.92
3917;BME280;1973;50.518;7.318;2023-02-15T12:50:23;101915.69;;;13.07;60.97
3917;BME280;1973;50.518;7.318;2023-02-15T12:53:30;101901.00;;;13.00;61.62
3917;BME280;1973;50.518;7.318;2023-02-15T12:55:59;101895.69;;;13.05;64.42
3917;BME280;1973;50.518;7.318;2023-02-15T12:58:28;101900.47;;;13.18;62.95
3917;BME280;1973;50.518;7.318;2023-02-15T13:03:36;101892.06;;;13.05;63.42
3917;BME280;1973;50.518;7.318;2023-02-15T13:06:04;101896.91;;;12.96;63.19
3917;BME280;1973;50.518;7.318;2023-02-15T13:08:38;101885.94;;;13.09;62.00
3917;BME280;1973;50.518;7.318;2023-02-15T13:11:10;101880.97;;;12.98;63.48
3917;BME280;1973;50.518;7.318;2023-02-15T13:13:59;101871.56;;;13.27;59.85
3917;BME280;1973;50.518;7.318;2023-02-15T13:16:32;101865.22;;;13.40;60.33
3917;BME280;1973;50.518;7.318;2023-02-15T13:19:08;101868.84;;;13.40;59.30
3917;BME280;1973;50.518;7.318;2023-02-15T13:21:40;101858.91;;;13.79;60.45
3917;BME280;1973;50.518;7.318;2023-02-15T13:24:20;101857.25;;;13.84;57.93
3917;BME280;1973;50.518;7.318;2023-02-15T13:26:48;101856.38;;;13.77;58.86
3917;BME280;1973;50.518;7.318;2023-02-15T13:29:21;101855.75;;;13.95;57.67
3917;BME280;1973;50.518;7.318;2023-02-15T13:31:50;101853.00;;;14.14;57.59
3917;BME280;1973;50.518;7.318;2023-02-15T13:34:28;101840.84;;;14.42;55.26
3917;BME280;1973;50.518;7.318;2023-02-15T13:37:01;101842.31;;;14.57;56.54
3917;BME280;1973;50.518;7.318;2023-02-15T13:39:41;101822.47;;;14.67;54.86
3917;BME280;1973;50.518;7.318;2023-02-15T13:42:24;101826.31;;;14.66;53.57
3917;BME280;1973;50.518;7.318;2023-02-15T13:50:45;101809.34;;;15.00;52.70
3917;BME280;1973;50.518;7.318;2023-02-15T13:56:13;101817.84;;;15.05;53.83
3917;BME280;1973;50.518;7.318;2023-02-15T13:59:45;101809.56;;;14.99;52.22
3917;BME280;1973;50.518;7.318;2023-02-15T14:01:57;101802.69;;;15.08;52.67
3917;BME280;1973;50.518;7.318;2023-02-15T14:05:04;101800.84;;;14.95;52.07
3917;BME280;1973;50.518;7.318;2023-02-15T14:07:51;101792.56;;;15.27;51.91
3917;BME280;1973;50.518;7.318;2023-02-15T14:13:39;101795.19;;;15.15;52.38
3917;BME280;1973;50.518;7.318;2023-02-15T14:19:16;101791.38;;;15.09;53.92
3917;BME280;1973;50.518;7.318;2023-02-15T14:21:48;101790.56;;;15.02;53.80
3917;BME280;1973;50.518;7.318;2023-02-15T14:27:27;101796.22;;;14.76;53.19
3917;BME280;1973;50.518;7.318;2023-02-15T14:30:14;101787.84;;;14.89;54.06
3917;BME280;1973;50.518;7.318;2023-02-15T14:32:46;101781.25;;;14.84;53.88
3917;BME280;1973;50.518;7.318;2023-02-15T14:35:16;101783.81;;;14.79;54.73
3917;BME280;1973;50.518;7.318;2023-02-15T14:43:11;101792.75;;;14.87;53.97
3917;BME280;1973;50.518;7.318;2023-02-15T14:45:50;101785.97;;;14.77;53.94
3917;BME280;1973;50.518;7.318;2023-02-15T14:48:24;101791.03;;;14.86;54.60
3917;BME280;1973;50.518;7.318;2023-02-15T14:50:52;101793.69;;;14.68;55.04
3917;BME280;1973;50.518;7.318;2023-02-15T14:53:40;101786.81;;;14.84;53.69
3917;BME280;1973;50.518;7.318;2023-02-15T15:01:29;101781.22;;;14.90;53.96
3917;BME280;1973;50.518;7.318;2023-02-15T15:04:00;101779.50;;;14.89;54.75
3917;BME280;1973;50.518;7.318;2023-02-15T15:06:33;101781.44;;;14.95;54.47
3917;BME280;1973;50.518;7.318;2023-02-15T15:09:11;101781.06;;;14.85;54.65
3917;BME280;1973;50.518;7.318;2023-02-15T15:11:44;101774.41;;;14.86;55.39
3917;BME280;1973;50.518;7.318;2023-02-15T15:17:01;101767.50;;;14.57;56.00
3917;BME280;1973;50.518;7.318;2023-02-15T15:22:24;101776.69;;;14.45;56.49